VTD105 UWSG-UWSG
Flight info
| Callsign | VTD105 |
|---|---|
| Flight time | 0h 29m |
| Altitude | 7000 |
| Route | OGRER VECTORS0V1/08 |
| Aircraft | C172/L-SD/C |
Departure
| Time | 2026-04-26 12:49 |
|---|---|
| Airport | Gagarin International Airport (UWSG) |
Arrival
| Time | 2026-04-26 13:18 |
|---|---|
| Airport | Gagarin International Airport (UWSG) |
| Time | Latitude | Longitude | Altitude | Speed | Heading |
|---|---|---|---|---|---|
| 2026-04-26 12:49 | 51.58623 | 45.81524 | 3065 ft | 108 kts | 356° |
| 2026-04-26 12:49 | 51.59280 | 45.80833 | 3043 ft | 110 kts | 298° |
| 2026-04-26 12:50 | 51.59271 | 45.79569 | 3051 ft | 108 kts | 241° |
| 2026-04-26 12:50 | 51.58857 | 45.78415 | 3077 ft | 106 kts | 239° |
| 2026-04-26 12:50 | 51.58450 | 45.77273 | 3054 ft | 109 kts | 239° |
| 2026-04-26 12:50 | 51.58046 | 45.76109 | 3069 ft | 108 kts | 240° |
| 2026-04-26 12:51 | 51.57644 | 45.74939 | 3065 ft | 109 kts | 241° |
| 2026-04-26 12:51 | 51.57268 | 45.73825 | 3065 ft | 109 kts | 242° |
| 2026-04-26 12:51 | 51.56681 | 45.73000 | 3106 ft | 106 kts | 191° |
| 2026-04-26 12:51 | 51.55983 | 45.73362 | 3291 ft | 100 kts | 131° |
| 2026-04-26 12:52 | 51.55833 | 45.74414 | 3470 ft | 96 kts | 73° |
| 2026-04-26 12:52 | 51.56171 | 45.75451 | 3581 ft | 101 kts | 60° |
| 2026-04-26 12:52 | 51.56529 | 45.76445 | 3759 ft | 97 kts | 59° |
| 2026-04-26 12:52 | 51.56844 | 45.77354 | 4045 ft | 87 kts | 60° |
| 2026-04-26 12:53 | 51.57140 | 45.78177 | 4264 ft | 84 kts | 59° |
| 2026-04-26 12:53 | 51.57441 | 45.79015 | 4445 ft | 86 kts | 59° |
| 2026-04-26 12:53 | 51.57731 | 45.79854 | 4658 ft | 84 kts | 61° |
| 2026-04-26 12:53 | 51.58030 | 45.80747 | 4850 ft | 85 kts | 62° |
| 2026-04-26 12:54 | 51.58290 | 45.81627 | 5041 ft | 85 kts | 64° |
| 2026-04-26 12:54 | 51.58638 | 45.82564 | 4974 ft | 103 kts | 60° |
| 2026-04-26 12:54 | 51.59035 | 45.83656 | 4932 ft | 112 kts | 60° |
| 2026-04-26 12:54 | 51.59437 | 45.84799 | 4919 ft | 114 kts | 60° |
| 2026-04-26 12:55 | 51.59843 | 45.85968 | 4908 ft | 115 kts | 61° |
| 2026-04-26 12:55 | 51.60247 | 45.87140 | 4902 ft | 114 kts | 61° |
| 2026-04-26 12:55 | 51.60640 | 45.88331 | 4902 ft | 113 kts | 63° |
| 2026-04-26 12:55 | 51.61043 | 45.89499 | 4909 ft | 112 kts | 60° |
| 2026-04-26 12:56 | 51.61448 | 45.90653 | 4912 ft | 112 kts | 61° |
| 2026-04-26 12:56 | 51.61847 | 45.91861 | 4904 ft | 113 kts | 62° |
| 2026-04-26 12:56 | 51.62264 | 45.93065 | 4908 ft | 112 kts | 60° |
| 2026-04-26 12:56 | 51.62691 | 45.94264 | 4887 ft | 114 kts | 60° |
| 2026-04-26 12:57 | 51.63089 | 45.95409 | 4875 ft | 114 kts | 61° |
| 2026-04-26 12:57 | 51.63470 | 45.96569 | 4895 ft | 112 kts | 64° |
| 2026-04-26 12:57 | 51.63862 | 45.97741 | 4917 ft | 111 kts | 61° |
| 2026-04-26 12:58 | 51.64651 | 46.00090 | 4925 ft | 111 kts | 60° |
| 2026-04-26 12:58 | 51.65073 | 46.01248 | 4916 ft | 112 kts | 59° |
| 2026-04-26 12:58 | 51.65485 | 46.02384 | 4934 ft | 111 kts | 59° |
| 2026-04-26 12:58 | 51.65901 | 46.03548 | 4908 ft | 114 kts | 59° |
| 2026-04-26 12:59 | 51.66322 | 46.04719 | 4920 ft | 112 kts | 60° |
| 2026-04-26 12:59 | 51.66725 | 46.05919 | 4917 ft | 113 kts | 59° |
| 2026-04-26 12:59 | 51.67146 | 46.07100 | 4931 ft | 112 kts | 60° |
| 2026-04-26 12:59 | 51.67562 | 46.08265 | 4921 ft | 113 kts | 62° |
| 2026-04-26 13:00 | 51.67975 | 46.09445 | 4923 ft | 112 kts | 60° |
| 2026-04-26 13:00 | 51.68385 | 46.10635 | 4935 ft | 112 kts | 61° |
| 2026-04-26 13:00 | 51.68807 | 46.11839 | 4925 ft | 113 kts | 60° |
| 2026-04-26 13:00 | 51.69242 | 46.13045 | 4928 ft | 113 kts | 60° |
| 2026-04-26 13:01 | 51.69650 | 46.14261 | 4929 ft | 112 kts | 62° |
| 2026-04-26 13:01 | 51.70052 | 46.15462 | 4923 ft | 113 kts | 61° |
| 2026-04-26 13:01 | 51.70459 | 46.16664 | 4923 ft | 113 kts | 60° |
| 2026-04-26 13:01 | 51.70870 | 46.17857 | 4916 ft | 113 kts | 61° |
| 2026-04-26 13:02 | 51.71335 | 46.18989 | 4921 ft | 112 kts | 36° |
| 2026-04-26 13:02 | 51.72127 | 46.19197 | 4920 ft | 112 kts | 342° |
| 2026-04-26 13:02 | 51.72678 | 46.18250 | 4916 ft | 112 kts | 284° |
| 2026-04-26 13:02 | 51.72780 | 46.16922 | 4900 ft | 114 kts | 276° |
| 2026-04-26 13:03 | 51.72871 | 46.15571 | 4789 ft | 112 kts | 275° |
| 2026-04-26 13:03 | 51.72943 | 46.14233 | 4668 ft | 111 kts | 276° |
| 2026-04-26 13:03 | 51.72994 | 46.12874 | 4544 ft | 110 kts | 275° |
| 2026-04-26 13:03 | 51.73053 | 46.11509 | 4411 ft | 111 kts | 274° |
| 2026-04-26 13:04 | 51.73115 | 46.10123 | 4271 ft | 112 kts | 275° |
| 2026-04-26 13:04 | 51.73179 | 46.08769 | 4143 ft | 112 kts | 274° |
| 2026-04-26 13:04 | 51.73245 | 46.07516 | 4028 ft | 112 kts | 274° |
| 2026-04-26 13:04 | 51.73315 | 46.06266 | 3911 ft | 112 kts | 275° |
| 2026-04-26 13:05 | 51.73375 | 46.05006 | 3771 ft | 113 kts | 274° |
| 2026-04-26 13:05 | 51.73431 | 46.03750 | 3625 ft | 113 kts | 274° |
| 2026-04-26 13:05 | 51.73497 | 46.02382 | 3471 ft | 112 kts | 274° |
| 2026-04-26 13:05 | 51.73544 | 46.01018 | 3301 ft | 113 kts | 273° |
| 2026-04-26 13:06 | 51.73604 | 45.99678 | 3159 ft | 112 kts | 276° |
| 2026-04-26 13:06 | 51.73696 | 45.98331 | 3044 ft | 109 kts | 275° |
| 2026-04-26 13:06 | 51.73777 | 45.97041 | 2899 ft | 110 kts | 276° |
| 2026-04-26 13:06 | 51.73858 | 45.95723 | 2759 ft | 110 kts | 273° |
| 2026-04-26 13:07 | 51.73914 | 45.94472 | 2625 ft | 110 kts | 275° |
| 2026-04-26 13:07 | 51.73980 | 45.93207 | 2529 ft | 107 kts | 274° |
| 2026-04-26 13:07 | 51.74045 | 45.91926 | 2424 ft | 105 kts | 273° |
| 2026-04-26 13:07 | 51.74094 | 45.90654 | 2295 ft | 106 kts | 274° |
| 2026-04-26 13:08 | 51.74173 | 45.89316 | 2158 ft | 107 kts | 275° |
| 2026-04-26 13:08 | 51.74254 | 45.87993 | 2007 ft | 108 kts | 275° |
| 2026-04-26 13:08 | 51.73966 | 45.86813 | 1909 ft | 106 kts | 221° |
| 2026-04-26 13:08 | 51.73208 | 45.86555 | 1863 ft | 107 kts | 165° |
| 2026-04-26 13:09 | 51.72673 | 45.87462 | 1800 ft | 111 kts | 106° |
| 2026-04-26 13:09 | 51.72676 | 45.88785 | 1738 ft | 112 kts | 92° |
| 2026-04-26 13:09 | 51.72628 | 45.90094 | 1719 ft | 111 kts | 96° |
| 2026-04-26 13:09 | 51.72574 | 45.91425 | 1665 ft | 114 kts | 96° |
| 2026-04-26 13:10 | 51.72507 | 45.92780 | 1651 ft | 112 kts | 95° |
| 2026-04-26 13:10 | 51.72457 | 45.94088 | 1652 ft | 111 kts | 95° |
| 2026-04-26 13:10 | 51.72370 | 45.95422 | 1610 ft | 112 kts | 94° |
| 2026-04-26 13:10 | 51.72302 | 45.96761 | 1619 ft | 110 kts | 97° |
| 2026-04-26 13:11 | 51.72209 | 45.98099 | 1609 ft | 111 kts | 97° |
| 2026-04-26 13:11 | 51.72124 | 45.99424 | 1573 ft | 112 kts | 98° |
| 2026-04-26 13:11 | 51.72046 | 46.00743 | 1576 ft | 111 kts | 97° |
| 2026-04-26 13:11 | 51.71959 | 46.02053 | 1570 ft | 110 kts | 95° |
| 2026-04-26 13:12 | 51.71897 | 46.03366 | 1567 ft | 110 kts | 94° |
| 2026-04-26 13:12 | 51.71814 | 46.04700 | 1469 ft | 113 kts | 97° |
| 2026-04-26 13:12 | 51.71733 | 46.06085 | 1352 ft | 115 kts | 96° |
| 2026-04-26 13:12 | 51.71666 | 46.07439 | 1238 ft | 104 kts | 94° |
| 2026-04-26 13:13 | 51.71603 | 46.08683 | 1070 ft | 99 kts | 96° |
| 2026-04-26 13:13 | 51.71537 | 46.09867 | 871 ft | 100 kts | 95° |
| 2026-04-26 13:13 | 51.71491 | 46.10973 | 734 ft | 95 kts | 92° |
| 2026-04-26 13:13 | 51.71518 | 46.12000 | 734 ft | 91 kts | 83° |
| 2026-04-26 13:14 | 51.71595 | 46.13000 | 722 ft | 89 kts | 81° |
| 2026-04-26 13:14 | 51.71702 | 46.13926 | 724 ft | 78 kts | 77° |
| 2026-04-26 13:14 | 51.71839 | 46.14841 | 706 ft | 74 kts | 72° |
| 2026-04-26 13:14 | 51.71979 | 46.15730 | 721 ft | 76 kts | 76° |
| 2026-04-26 13:15 | 51.72086 | 46.16669 | 735 ft | 78 kts | 81° |
| 2026-04-26 13:15 | 51.72187 | 46.17609 | 750 ft | 78 kts | 78° |
| 2026-04-26 13:15 | 51.72309 | 46.18460 | 760 ft | 79 kts | 75° |
| 2026-04-26 13:15 | 51.72449 | 46.19343 | 752 ft | 81 kts | 74° |
| 2026-04-26 13:16 | 51.72605 | 46.20215 | 749 ft | 81 kts | 73° |
| 2026-04-26 13:16 | 51.72726 | 46.21106 | 763 ft | 79 kts | 82° |
| 2026-04-26 13:16 | 51.72574 | 46.21984 | 755 ft | 80 kts | 132° |
| 2026-04-26 13:16 | 51.72112 | 46.22577 | 721 ft | 77 kts | 152° |
| 2026-04-26 13:17 | 51.71238 | 46.22293 | 638 ft | 70 kts | 247° |
| 2026-04-26 13:17 | 51.71147 | 46.21516 | 494 ft | 71 kts | 270° |
| 2026-04-26 13:18 | 51.71192 | 46.19973 | 236 ft | 67 kts | 270° |
| 2026-04-26 13:18 | 51.71207 | 46.19245 | 122 ft | 62 kts | 271° |
| 2026-04-26 13:18 | 51.71236 | 46.18031 | 107 ft | 44 kts | 272° |
| 2026-04-26 13:19 | 51.71244 | 46.17670 | 107 ft | 12 kts | 272° |
| 2026-04-26 13:19 | 51.71248 | 46.17490 | 107 ft | 15 kts | 272° |
| 2026-04-26 13:19 | 51.71295 | 46.17390 | 107 ft | 11 kts | 351° |
| 2026-04-26 13:19 | 51.71388 | 46.17393 | 107 ft | 12 kts | 2° |
| 2026-04-26 13:20 | 51.71418 | 46.17395 | 107 ft | 0 kts | 1° |
| 2026-04-26 13:20 | 51.71463 | 46.17399 | 107 ft | 10 kts | 2° |
| 2026-04-26 13:21 | 51.71512 | 46.17369 | 107 ft | 7 kts | 298° |
| 2026-04-26 13:21 | 51.71518 | 46.17298 | 107 ft | 10 kts | 270° |
| 2026-04-26 13:21 | 51.71572 | 46.17221 | 107 ft | 3 kts | 332° |
| 2026-04-26 13:21 | 51.71574 | 46.17218 | 107 ft | 0 kts | 331° |